sensor_id;sensor_type;location;lat;lon;timestamp;P1;durP1;ratioP1;P2;durP2;ratioP2
19919;SDS011;10122;50.074;19.920;2023-05-28T00:00:32;6.30;;;3.42;;
19919;SDS011;10122;50.074;19.920;2023-05-28T00:02:58;8.25;;;3.72;;
19919;SDS011;10122;50.074;19.920;2023-05-28T00:05:24;8.13;;;4.03;;
19919;SDS011;10122;50.074;19.920;2023-05-28T00:07:50;7.03;;;3.80;;
19919;SDS011;10122;50.074;19.920;2023-05-28T00:10:16;7.10;;;3.60;;
19919;SDS011;10122;50.074;19.920;2023-05-28T00:12:41;7.53;;;3.92;;
19919;SDS011;10122;50.074;19.920;2023-05-28T00:15:08;7.28;;;3.90;;
19919;SDS011;10122;50.074;19.920;2023-05-28T00:17:34;5.97;;;3.40;;
19919;SDS011;10122;50.074;19.920;2023-05-28T00:20:00;6.68;;;3.50;;
19919;SDS011;10122;50.074;19.920;2023-05-28T00:22:26;6.78;;;3.75;;
19919;SDS011;10122;50.074;19.920;2023-05-28T00:24:52;7.40;;;3.40;;
19919;SDS011;10122;50.074;19.920;2023-05-28T00:27:18;6.80;;;3.60;;
19919;SDS011;10122;50.074;19.920;2023-05-28T00:29:43;8.60;;;3.50;;
19919;SDS011;10122;50.074;19.920;2023-05-28T00:32:09;6.38;;;3.38;;
19919;SDS011;10122;50.074;19.920;2023-05-28T00:34:35;9.35;;;3.90;;
19919;SDS011;10122;50.074;19.920;2023-05-28T00:37:01;7.15;;;3.42;;
19919;SDS011;10122;50.074;19.920;2023-05-28T00:39:26;8.10;;;3.58;;
19919;SDS011;10122;50.074;19.920;2023-05-28T00:42:02;5.63;;;3.10;;
19919;SDS011;10122;50.074;19.920;2023-05-28T00:44:29;7.40;;;3.60;;
19919;SDS011;10122;50.074;19.920;2023-05-28T00:46:57;9.00;;;3.90;;
19919;SDS011;10122;50.074;19.920;2023-05-28T00:49:24;6.32;;;3.08;;
19919;SDS011;10122;50.074;19.920;2023-05-28T00:51:50;6.28;;;3.40;;
19919;SDS011;10122;50.074;19.920;2023-05-28T00:54:16;7.85;;;3.70;;
19919;SDS011;10122;50.074;19.920;2023-05-28T00:56:43;8.13;;;3.38;;
19919;SDS011;10122;50.074;19.920;2023-05-28T00:59:11;6.28;;;3.47;;
19919;SDS011;10122;50.074;19.920;2023-05-28T01:01:37;5.90;;;3.17;;
19919;SDS011;10122;50.074;19.920;2023-05-28T01:04:04;8.32;;;3.22;;
19919;SDS011;10122;50.074;19.920;2023-05-28T01:06:30;5.93;;;3.13;;
19919;SDS011;10122;50.074;19.920;2023-05-28T01:08:56;5.57;;;2.88;;
19919;SDS011;10122;50.074;19.920;2023-05-28T01:11:22;6.88;;;2.85;;
19919;SDS011;10122;50.074;19.920;2023-05-28T01:13:49;8.48;;;3.17;;
19919;SDS011;10122;50.074;19.920;2023-05-28T01:16:16;6.53;;;3.60;;
19919;SDS011;10122;50.074;19.920;2023-05-28T01:18:41;5.22;;;3.20;;
19919;SDS011;10122;50.074;19.920;2023-05-28T01:21:10;4.40;;;2.88;;
19919;SDS011;10122;50.074;19.920;2023-05-28T01:23:46;7.65;;;2.75;;
19919;SDS011;10122;50.074;19.920;2023-05-28T01:26:13;6.28;;;3.05;;
19919;SDS011;10122;50.074;19.920;2023-05-28T01:28:43;5.95;;;3.28;;
19919;SDS011;10122;50.074;19.920;2023-05-28T01:31:13;7.93;;;3.03;;
19919;SDS011;10122;50.074;19.920;2023-05-28T01:33:40;5.10;;;2.90;;
19919;SDS011;10122;50.074;19.920;2023-05-28T01:36:28;7.90;;;3.10;;
19919;SDS011;10122;50.074;19.920;2023-05-28T01:38:57;7.38;;;3.03;;
19919;SDS011;10122;50.074;19.920;2023-05-28T01:41:27;5.05;;;2.83;;
19919;SDS011;10122;50.074;19.920;2023-05-28T01:43:53;8.20;;;3.15;;
19919;SDS011;10122;50.074;19.920;2023-05-28T01:46:20;5.25;;;2.92;;
19919;SDS011;10122;50.074;19.920;2023-05-28T01:48:47;4.82;;;2.97;;
19919;SDS011;10122;50.074;19.920;2023-05-28T01:51:31;4.70;;;2.70;;
19919;SDS011;10122;50.074;19.920;2023-05-28T01:53:57;5.75;;;3.20;;
19919;SDS011;10122;50.074;19.920;2023-05-28T01:56:23;7.55;;;3.40;;
19919;SDS011;10122;50.074;19.920;2023-05-28T01:58:50;4.57;;;2.80;;
19919;SDS011;10122;50.074;19.920;2023-05-28T02:01:20;6.75;;;2.90;;
19919;SDS011;10122;50.074;19.920;2023-05-28T02:03:54;5.30;;;2.92;;
19919;SDS011;10122;50.074;19.920;2023-05-28T02:06:21;6.03;;;3.10;;
19919;SDS011;10122;50.074;19.920;2023-05-28T02:08:47;6.85;;;3.10;;
19919;SDS011;10122;50.074;19.920;2023-05-28T02:11:12;4.15;;;2.70;;
19919;SDS011;10122;50.074;19.920;2023-05-28T02:13:38;5.50;;;2.80;;
19919;SDS011;10122;50.074;19.920;2023-05-28T02:16:04;6.55;;;2.70;;
19919;SDS011;10122;50.074;19.920;2023-05-28T02:18:31;5.88;;;3.08;;
19919;SDS011;10122;50.074;19.920;2023-05-28T02:20:57;7.00;;;3.08;;
19919;SDS011;10122;50.074;19.920;2023-05-28T02:23:23;8.00;;;3.10;;
19919;SDS011;10122;50.074;19.920;2023-05-28T02:25:49;5.20;;;3.03;;
19919;SDS011;10122;50.074;19.920;2023-05-28T02:28:15;6.68;;;2.97;;
19919;SDS011;10122;50.074;19.920;2023-05-28T02:30:40;8.35;;;3.00;;
19919;SDS011;10122;50.074;19.920;2023-05-28T02:33:06;8.25;;;2.65;;
19919;SDS011;10122;50.074;19.920;2023-05-28T02:35:32;8.02;;;3.10;;
19919;SDS011;10122;50.074;19.920;2023-05-28T02:37:57;3.53;;;2.40;;
19919;SDS011;10122;50.074;19.920;2023-05-28T02:40:23;6.97;;;2.60;;
19919;SDS011;10122;50.074;19.920;2023-05-28T02:42:49;4.18;;;2.50;;
19919;SDS011;10122;50.074;19.920;2023-05-28T02:45:15;6.65;;;2.85;;
19919;SDS011;10122;50.074;19.920;2023-05-28T02:47:40;5.50;;;2.80;;
19919;SDS011;10122;50.074;19.920;2023-05-28T02:50:06;4.30;;;2.35;;
19919;SDS011;10122;50.074;19.920;2023-05-28T02:52:32;6.25;;;2.60;;
19919;SDS011;10122;50.074;19.920;2023-05-28T02:54:58;5.00;;;2.67;;
19919;SDS011;10122;50.074;19.920;2023-05-28T02:57:24;5.63;;;2.63;;
19919;SDS011;10122;50.074;19.920;2023-05-28T02:59:51;4.18;;;2.50;;
19919;SDS011;10122;50.074;19.920;2023-05-28T03:02:16;6.03;;;2.42;;
19919;SDS011;10122;50.074;19.920;2023-05-28T03:04:42;5.38;;;2.55;;
19919;SDS011;10122;50.074;19.920;2023-05-28T03:07:08;7.13;;;2.17;;
19919;SDS011;10122;50.074;19.920;2023-05-28T03:09:35;5.63;;;2.50;;
19919;SDS011;10122;50.074;19.920;2023-05-28T03:12:02;4.97;;;2.67;;
19919;SDS011;10122;50.074;19.920;2023-05-28T03:14:28;4.45;;;2.40;;
19919;SDS011;10122;50.074;19.920;2023-05-28T03:16:53;8.38;;;2.78;;
19919;SDS011;10122;50.074;19.920;2023-05-28T03:19:19;5.97;;;2.80;;
19919;SDS011;10122;50.074;19.920;2023-05-28T03:21:45;4.65;;;2.70;;
19919;SDS011;10122;50.074;19.920;2023-05-28T03:24:11;5.10;;;2.60;;
19919;SDS011;10122;50.074;19.920;2023-05-28T03:26:36;5.45;;;3.00;;
19919;SDS011;10122;50.074;19.920;2023-05-28T03:29:02;6.57;;;2.50;;
19919;SDS011;10122;50.074;19.920;2023-05-28T03:31:28;5.38;;;2.33;;
19919;SDS011;10122;50.074;19.920;2023-05-28T03:33:55;6.63;;;2.58;;
19919;SDS011;10122;50.074;19.920;2023-05-28T03:36:21;4.82;;;2.60;;
19919;SDS011;10122;50.074;19.920;2023-05-28T03:38:49;5.55;;;2.45;;
19919;SDS011;10122;50.074;19.920;2023-05-28T03:41:15;5.57;;;2.30;;
19919;SDS011;10122;50.074;19.920;2023-05-28T03:43:41;5.13;;;2.40;;
19919;SDS011;10122;50.074;19.920;2023-05-28T03:46:06;4.80;;;2.22;;
19919;SDS011;10122;50.074;19.920;2023-05-28T03:48:32;4.68;;;2.30;;
19919;SDS011;10122;50.074;19.920;2023-05-28T03:50:58;3.97;;;2.40;;
19919;SDS011;10122;50.074;19.920;2023-05-28T03:53:23;6.45;;;2.35;;
19919;SDS011;10122;50.074;19.920;2023-05-28T03:55:49;4.25;;;2.50;;
19919;SDS011;10122;50.074;19.920;2023-05-28T03:58:16;4.65;;;2.40;;
19919;SDS011;10122;50.074;19.920;2023-05-28T04:00:42;5.55;;;2.50;;
19919;SDS011;10122;50.074;19.920;2023-05-28T04:03:08;3.80;;;2.20;;
19919;SDS011;10122;50.074;19.920;2023-05-28T04:05:33;5.30;;;2.30;;
19919;SDS011;10122;50.074;19.920;2023-05-28T04:07:59;4.03;;;2.45;;
19919;SDS011;10122;50.074;19.920;2023-05-28T04:10:27;5.05;;;2.13;;
19919;SDS011;10122;50.074;19.920;2023-05-28T04:12:52;5.07;;;2.45;;
19919;SDS011;10122;50.074;19.920;2023-05-28T04:15:20;3.97;;;2.10;;
19919;SDS011;10122;50.074;19.920;2023-05-28T04:17:46;5.15;;;2.40;;
19919;SDS011;10122;50.074;19.920;2023-05-28T04:20:11;4.63;;;2.45;;
19919;SDS011;10122;50.074;19.920;2023-05-28T04:22:37;4.93;;;2.38;;
19919;SDS011;10122;50.074;19.920;2023-05-28T04:25:03;4.95;;;2.47;;
19919;SDS011;10122;50.074;19.920;2023-05-28T04:27:29;5.57;;;2.67;;
19919;SDS011;10122;50.074;19.920;2023-05-28T04:29:55;6.00;;;2.35;;
19919;SDS011;10122;50.074;19.920;2023-05-28T04:32:22;4.28;;;2.30;;
19919;SDS011;10122;50.074;19.920;2023-05-28T04:34:48;4.65;;;2.40;;
19919;SDS011;10122;50.074;19.920;2023-05-28T04:37:18;5.25;;;2.30;;
19919;SDS011;10122;50.074;19.920;2023-05-28T04:39:44;4.13;;;2.10;;
19919;SDS011;10122;50.074;19.920;2023-05-28T04:42:10;6.00;;;2.60;;
19919;SDS011;10122;50.074;19.920;2023-05-28T04:44:41;3.90;;;2.28;;
19919;SDS011;10122;50.074;19.920;2023-05-28T04:47:08;5.32;;;2.30;;
19919;SDS011;10122;50.074;19.920;2023-05-28T04:49:34;5.22;;;2.25;;
19919;SDS011;10122;50.074;19.920;2023-05-28T04:52:00;6.57;;;1.98;;
19919;SDS011;10122;50.074;19.920;2023-05-28T04:54:25;5.88;;;1.95;;
19919;SDS011;10122;50.074;19.920;2023-05-28T04:56:54;4.18;;;2.03;;
19919;SDS011;10122;50.074;19.920;2023-05-28T04:59:20;6.45;;;2.35;;
19919;SDS011;10122;50.074;19.920;2023-05-28T05:01:45;5.35;;;2.28;;
19919;SDS011;10122;50.074;19.920;2023-05-28T05:04:11;4.82;;;2.50;;
19919;SDS011;10122;50.074;19.920;2023-05-28T05:06:37;6.55;;;2.30;;
19919;SDS011;10122;50.074;19.920;2023-05-28T05:09:03;4.93;;;2.45;;
19919;SDS011;10122;50.074;19.920;2023-05-28T05:11:30;7.57;;;2.70;;
19919;SDS011;10122;50.074;19.920;2023-05-28T05:13:56;4.70;;;2.55;;
19919;SDS011;10122;50.074;19.920;2023-05-28T05:16:21;4.15;;;2.45;;
19919;SDS011;10122;50.074;19.920;2023-05-28T05:18:47;6.28;;;2.92;;
19919;SDS011;10122;50.074;19.920;2023-05-28T05:21:13;6.32;;;2.50;;
19919;SDS011;10122;50.074;19.920;2023-05-28T05:23:39;6.13;;;2.72;;
19919;SDS011;10122;50.074;19.920;2023-05-28T05:26:06;4.95;;;2.70;;
19919;SDS011;10122;50.074;19.920;2023-05-28T05:28:34;5.63;;;2.50;;
19919;SDS011;10122;50.074;19.920;2023-05-28T05:31:00;8.07;;;3.10;;
19919;SDS011;10122;50.074;19.920;2023-05-28T05:33:26;4.20;;;2.58;;
19919;SDS011;10122;50.074;19.920;2023-05-28T05:35:52;6.45;;;3.00;;
19919;SDS011;10122;50.074;19.920;2023-05-28T05:38:17;4.63;;;2.67;;
19919;SDS011;10122;50.074;19.920;2023-05-28T05:40:43;6.95;;;3.05;;
19919;SDS011;10122;50.074;19.920;2023-05-28T05:43:09;6.85;;;3.42;;
19919;SDS011;10122;50.074;19.920;2023-05-28T05:45:35;8.20;;;3.42;;
19919;SDS011;10122;50.074;19.920;2023-05-28T05:48:00;7.28;;;3.53;;
19919;SDS011;10122;50.074;19.920;2023-05-28T05:50:26;9.38;;;3.72;;
19919;SDS011;10122;50.074;19.920;2023-05-28T05:52:52;6.78;;;3.20;;
19919;SDS011;10122;50.074;19.920;2023-05-28T05:55:18;7.38;;;3.55;;
19919;SDS011;10122;50.074;19.920;2023-05-28T05:57:43;6.63;;;3.10;;
19919;SDS011;10122;50.074;19.920;2023-05-28T06:00:10;7.32;;;3.30;;
19919;SDS011;10122;50.074;19.920;2023-05-28T06:02:38;6.40;;;3.55;;
19919;SDS011;10122;50.074;19.920;2023-05-28T06:05:04;8.95;;;3.90;;
19919;SDS011;10122;50.074;19.920;2023-05-28T06:07:31;7.60;;;3.85;;
19919;SDS011;10122;50.074;19.920;2023-05-28T06:09:57;6.80;;;3.70;;
19919;SDS011;10122;50.074;19.920;2023-05-28T06:12:23;8.40;;;4.10;;
19919;SDS011;10122;50.074;19.920;2023-05-28T06:14:49;7.93;;;3.55;;
19919;SDS011;10122;50.074;19.920;2023-05-28T06:17:15;9.73;;;4.30;;
19919;SDS011;10122;50.074;19.920;2023-05-28T06:19:41;8.82;;;4.50;;
19919;SDS011;10122;50.074;19.920;2023-05-28T06:22:07;8.50;;;4.13;;
19919;SDS011;10122;50.074;19.920;2023-05-28T06:24:34;6.72;;;4.03;;
19919;SDS011;10122;50.074;19.920;2023-05-28T06:27:01;8.50;;;4.13;;
19919;SDS011;10122;50.074;19.920;2023-05-28T06:29:28;9.70;;;4.13;;
19919;SDS011;10122;50.074;19.920;2023-05-28T06:31:54;8.13;;;4.05;;
19919;SDS011;10122;50.074;19.920;2023-05-28T06:34:19;9.43;;;4.10;;
19919;SDS011;10122;50.074;19.920;2023-05-28T06:36:45;7.72;;;3.92;;
19919;SDS011;10122;50.074;19.920;2023-05-28T06:39:11;8.82;;;4.07;;
19919;SDS011;10122;50.074;19.920;2023-05-28T06:41:36;9.13;;;3.90;;
19919;SDS011;10122;50.074;19.920;2023-05-28T06:44:02;7.65;;;4.45;;
19919;SDS011;10122;50.074;19.920;2023-05-28T06:46:28;9.55;;;4.30;;
19919;SDS011;10122;50.074;19.920;2023-05-28T06:48:54;7.63;;;3.90;;
19919;SDS011;10122;50.074;19.920;2023-05-28T06:51:20;10.55;;;4.28;;
19919;SDS011;10122;50.074;19.920;2023-05-28T06:53:46;7.70;;;3.90;;
19919;SDS011;10122;50.074;19.920;2023-05-28T06:56:12;8.10;;;4.03;;
19919;SDS011;10122;50.074;19.920;2023-05-28T06:58:38;6.95;;;3.88;;
19919;SDS011;10122;50.074;19.920;2023-05-28T07:01:04;6.53;;;3.58;;
19919;SDS011;10122;50.074;19.920;2023-05-28T07:03:30;6.55;;;3.22;;
19919;SDS011;10122;50.074;19.920;2023-05-28T07:05:55;7.63;;;3.65;;
19919;SDS011;10122;50.074;19.920;2023-05-28T07:08:21;8.15;;;3.70;;
19919;SDS011;10122;50.074;19.920;2023-05-28T07:10:47;13.52;;;3.80;;
19919;SDS011;10122;50.074;19.920;2023-05-28T07:13:13;6.50;;;3.40;;
19919;SDS011;10122;50.074;19.920;2023-05-28T07:15:38;5.30;;;3.10;;
19919;SDS011;10122;50.074;19.920;2023-05-28T07:18:04;8.07;;;3.28;;
19919;SDS011;10122;50.074;19.920;2023-05-28T07:20:30;6.53;;;3.30;;
19919;SDS011;10122;50.074;19.920;2023-05-28T07:22:56;6.78;;;3.03;;
19919;SDS011;10122;50.074;19.920;2023-05-28T07:25:22;7.40;;;3.30;;
19919;SDS011;10122;50.074;19.920;2023-05-28T07:27:48;5.03;;;2.97;;
19919;SDS011;10122;50.074;19.920;2023-05-28T07:30:13;9.02;;;3.50;;
19919;SDS011;10122;50.074;19.920;2023-05-28T07:32:39;5.90;;;2.83;;
19919;SDS011;10122;50.074;19.920;2023-05-28T07:35:05;4.85;;;2.78;;
19919;SDS011;10122;50.074;19.920;2023-05-28T07:37:31;5.95;;;2.80;;
19919;SDS011;10122;50.074;19.920;2023-05-28T07:39:57;4.55;;;2.50;;
19919;SDS011;10122;50.074;19.920;2023-05-28T07:42:23;7.03;;;2.90;;
19919;SDS011;10122;50.074;19.920;2023-05-28T07:44:49;10.93;;;3.05;;
19919;SDS011;10122;50.074;19.920;2023-05-28T07:47:14;4.82;;;3.00;;
19919;SDS011;10122;50.074;19.920;2023-05-28T07:49:41;4.63;;;2.60;;
19919;SDS011;10122;50.074;19.920;2023-05-28T07:52:06;4.72;;;2.80;;
19919;SDS011;10122;50.074;19.920;2023-05-28T07:54:33;6.70;;;2.80;;
19919;SDS011;10122;50.074;19.920;2023-05-28T07:56:59;4.90;;;2.80;;
19919;SDS011;10122;50.074;19.920;2023-05-28T07:59:25;5.93;;;2.80;;
19919;SDS011;10122;50.074;19.920;2023-05-28T08:01:51;5.13;;;2.72;;
19919;SDS011;10122;50.074;19.920;2023-05-28T08:04:17;7.53;;;2.70;;
19919;SDS011;10122;50.074;19.920;2023-05-28T08:06:43;7.80;;;2.65;;
19919;SDS011;10122;50.074;19.920;2023-05-28T08:09:09;6.60;;;2.60;;
19919;SDS011;10122;50.074;19.920;2023-05-28T08:11:35;8.27;;;2.70;;
19919;SDS011;10122;50.074;19.920;2023-05-28T08:14:00;7.13;;;2.78;;
19919;SDS011;10122;50.074;19.920;2023-05-28T08:16:27;5.85;;;2.80;;
19919;SDS011;10122;50.074;19.920;2023-05-28T08:18:53;7.93;;;2.78;;
19919;SDS011;10122;50.074;19.920;2023-05-28T08:21:18;6.00;;;2.88;;
19919;SDS011;10122;50.074;19.920;2023-05-28T08:23:44;7.20;;;2.95;;
19919;SDS011;10122;50.074;19.920;2023-05-28T08:26:10;4.68;;;2.45;;
19919;SDS011;10122;50.074;19.920;2023-05-28T08:28:36;4.22;;;2.47;;
19919;SDS011;10122;50.074;19.920;2023-05-28T08:31:02;5.93;;;2.05;;
19919;SDS011;10122;50.074;19.920;2023-05-28T08:33:27;4.25;;;2.40;;
19919;SDS011;10122;50.074;19.920;2023-05-28T08:35:53;5.55;;;2.30;;
19919;SDS011;10122;50.074;19.920;2023-05-28T08:38:19;7.45;;;3.08;;
19919;SDS011;10122;50.074;19.920;2023-05-28T08:40:48;3.67;;;2.05;;
19919;SDS011;10122;50.074;19.920;2023-05-28T08:43:18;4.47;;;2.25;;
19919;SDS011;10122;50.074;19.920;2023-05-28T08:45:44;6.18;;;2.10;;
19919;SDS011;10122;50.074;19.920;2023-05-28T08:48:11;4.45;;;2.25;;
19919;SDS011;10122;50.074;19.920;2023-05-28T08:50:38;5.30;;;2.53;;
19919;SDS011;10122;50.074;19.920;2023-05-28T08:53:07;5.93;;;2.20;;
19919;SDS011;10122;50.074;19.920;2023-05-28T08:55:44;3.83;;;2.28;;
19919;SDS011;10122;50.074;19.920;2023-05-28T08:58:11;4.93;;;2.30;;
19919;SDS011;10122;50.074;19.920;2023-05-28T09:00:37;3.95;;;2.17;;
19919;SDS011;10122;50.074;19.920;2023-05-28T09:03:03;4.68;;;2.42;;
19919;SDS011;10122;50.074;19.920;2023-05-28T09:05:36;5.15;;;2.35;;
19919;SDS011;10122;50.074;19.920;2023-05-28T09:08:06;4.88;;;2.22;;
19919;SDS011;10122;50.074;19.920;2023-05-28T09:10:34;5.45;;;2.60;;
19919;SDS011;10122;50.074;19.920;2023-05-28T09:13:00;5.35;;;2.40;;
19919;SDS011;10122;50.074;19.920;2023-05-28T09:15:27;5.25;;;1.92;;
19919;SDS011;10122;50.074;19.920;2023-05-28T09:17:54;6.65;;;2.30;;
19919;SDS011;10122;50.074;19.920;2023-05-28T09:20:21;3.17;;;2.20;;
19919;SDS011;10122;50.074;19.920;2023-05-28T09:22:56;3.20;;;2.08;;
19919;SDS011;10122;50.074;19.920;2023-05-28T09:25:34;6.05;;;2.30;;
19919;SDS011;10122;50.074;19.920;2023-05-28T09:28:01;3.85;;;1.92;;
19919;SDS011;10122;50.074;19.920;2023-05-28T09:30:27;4.20;;;2.25;;
19919;SDS011;10122;50.074;19.920;2023-05-28T09:33:00;2.58;;;1.80;;
19919;SDS011;10122;50.074;19.920;2023-05-28T09:35:27;5.10;;;1.80;;
19919;SDS011;10122;50.074;19.920;2023-05-28T09:38:00;4.57;;;2.20;;
19919;SDS011;10122;50.074;19.920;2023-05-28T09:40:30;4.18;;;1.67;;
19919;SDS011;10122;50.074;19.920;2023-05-28T09:42:55;3.10;;;2.20;;
19919;SDS011;10122;50.074;19.920;2023-05-28T09:45:25;5.80;;;2.30;;
19919;SDS011;10122;50.074;19.920;2023-05-28T09:47:52;4.80;;;2.55;;
19919;SDS011;10122;50.074;19.920;2023-05-28T09:50:18;5.05;;;2.40;;
19919;SDS011;10122;50.074;19.920;2023-05-28T09:52:45;5.60;;;2.08;;
19919;SDS011;10122;50.074;19.920;2023-05-28T09:55:15;6.35;;;2.30;;
19919;SDS011;10122;50.074;19.920;2023-05-28T09:58:04;3.53;;;2.00;;
19919;SDS011;10122;50.074;19.920;2023-05-28T10:00:48;4.38;;;2.20;;
19919;SDS011;10122;50.074;19.920;2023-05-28T10:06:10;6.15;;;2.45;;
19919;SDS011;10122;50.074;19.920;2023-05-28T10:08:39;3.85;;;2.35;;
19919;SDS011;10122;50.074;19.920;2023-05-28T10:11:11;4.82;;;2.33;;
19919;SDS011;10122;50.074;19.920;2023-05-28T10:13:40;4.10;;;2.33;;
19919;SDS011;10122;50.074;19.920;2023-05-28T10:16:06;4.32;;;2.13;;
19919;SDS011;10122;50.074;19.920;2023-05-28T10:18:32;2.90;;;1.80;;
19919;SDS011;10122;50.074;19.920;2023-05-28T10:21:00;5.75;;;2.10;;
19919;SDS011;10122;50.074;19.920;2023-05-28T10:23:26;3.72;;;2.40;;
19919;SDS011;10122;50.074;19.920;2023-05-28T10:25:53;3.65;;;2.30;;
19919;SDS011;10122;50.074;19.920;2023-05-28T10:28:20;5.03;;;2.42;;
19919;SDS011;10122;50.074;19.920;2023-05-28T10:30:46;4.93;;;2.60;;
19919;SDS011;10122;50.074;19.920;2023-05-28T10:33:39;4.03;;;2.40;;
19919;SDS011;10122;50.074;19.920;2023-05-28T10:36:13;4.07;;;1.80;;
19919;SDS011;10122;50.074;19.920;2023-05-28T10:38:43;4.63;;;2.78;;
19919;SDS011;10122;50.074;19.920;2023-05-28T10:41:10;5.20;;;2.47;;
19919;SDS011;10122;50.074;19.920;2023-05-28T10:43:46;4.43;;;2.45;;
19919;SDS011;10122;50.074;19.920;2023-05-28T10:46:16;4.70;;;2.67;;
19919;SDS011;10122;50.074;19.920;2023-05-28T10:49:06;5.68;;;2.33;;
19919;SDS011;10122;50.074;19.920;2023-05-28T10:51:55;5.70;;;2.50;;
19919;SDS011;10122;50.074;19.920;2023-05-28T10:54:23;5.82;;;2.60;;
19919;SDS011;10122;50.074;19.920;2023-05-28T10:59:52;3.30;;;2.22;;
19919;SDS011;10122;50.074;19.920;2023-05-28T11:02:26;4.20;;;2.20;;
19919;SDS011;10122;50.074;19.920;2023-05-28T11:04:54;5.53;;;2.80;;
19919;SDS011;10122;50.074;19.920;2023-05-28T11:07:22;4.68;;;2.13;;
19919;SDS011;10122;50.074;19.920;2023-05-28T11:09:56;5.93;;;3.10;;
19919;SDS011;10122;50.074;19.920;2023-05-28T11:12:22;4.70;;;2.78;;
19919;SDS011;10122;50.074;19.920;2023-05-28T11:14:52;3.78;;;2.40;;
19919;SDS011;10122;50.074;19.920;2023-05-28T11:17:18;5.75;;;1.85;;
19919;SDS011;10122;50.074;19.920;2023-05-28T11:19:45;7.03;;;2.90;;
19919;SDS011;10122;50.074;19.920;2023-05-28T11:22:15;6.85;;;2.28;;
19919;SDS011;10122;50.074;19.920;2023-05-28T11:27:25;6.88;;;2.22;;
19919;SDS011;10122;50.074;19.920;2023-05-28T11:29:53;3.60;;;2.15;;
19919;SDS011;10122;50.074;19.920;2023-05-28T11:32:20;5.30;;;2.08;;
19919;SDS011;10122;50.074;19.920;2023-05-28T11:34:47;4.78;;;2.30;;
19919;SDS011;10122;50.074;19.920;2023-05-28T11:37:14;4.85;;;2.30;;
19919;SDS011;10122;50.074;19.920;2023-05-28T11:39:47;6.35;;;2.70;;
19919;SDS011;10122;50.074;19.920;2023-05-28T11:42:16;5.22;;;2.38;;
19919;SDS011;10122;50.074;19.920;2023-05-28T11:44:46;5.80;;;2.13;;
19919;SDS011;10122;50.074;19.920;2023-05-28T11:47:13;4.50;;;2.40;;
19919;SDS011;10122;50.074;19.920;2023-05-28T11:49:40;4.50;;;2.20;;
19919;SDS011;10122;50.074;19.920;2023-05-28T11:52:10;7.38;;;2.58;;
19919;SDS011;10122;50.074;19.920;2023-05-28T11:54:40;4.32;;;2.28;;
19919;SDS011;10122;50.074;19.920;2023-05-28T11:57:08;3.95;;;2.28;;
19919;SDS011;10122;50.074;19.920;2023-05-28T11:59:35;6.22;;;2.33;;
19919;SDS011;10122;50.074;19.920;2023-05-28T12:02:16;3.67;;;2.35;;
19919;SDS011;10122;50.074;19.920;2023-05-28T12:04:52;3.33;;;2.35;;
19919;SDS011;10122;50.074;19.920;2023-05-28T12:07:26;5.18;;;2.30;;
19919;SDS011;10122;50.074;19.920;2023-05-28T12:10:03;4.30;;;2.20;;
19919;SDS011;10122;50.074;19.920;2023-05-28T12:12:33;4.53;;;2.40;;
19919;SDS011;10122;50.074;19.920;2023-05-28T12:15:04;4.28;;;1.98;;
19919;SDS011;10122;50.074;19.920;2023-05-28T12:17:51;4.15;;;2.47;;
19919;SDS011;10122;50.074;19.920;2023-05-28T12:22:58;6.88;;;2.20;;
19919;SDS011;10122;50.074;19.920;2023-05-28T12:25:28;4.40;;;2.20;;
19919;SDS011;10122;50.074;19.920;2023-05-28T12:27:59;3.88;;;2.05;;
19919;SDS011;10122;50.074;19.920;2023-05-28T12:30:25;4.55;;;2.20;;
19919;SDS011;10122;50.074;19.920;2023-05-28T12:32:51;5.50;;;2.00;;
19919;SDS011;10122;50.074;19.920;2023-05-28T12:35:17;4.90;;;1.55;;
19919;SDS011;10122;50.074;19.920;2023-05-28T12:37:42;4.68;;;2.00;;
19919;SDS011;10122;50.074;19.920;2023-05-28T12:40:08;3.58;;;1.98;;
19919;SDS011;10122;50.074;19.920;2023-05-28T12:42:34;4.47;;;1.80;;
19919;SDS011;10122;50.074;19.920;2023-05-28T12:45:00;2.88;;;2.00;;
19919;SDS011;10122;50.074;19.920;2023-05-28T12:47:26;6.70;;;1.90;;
19919;SDS011;10122;50.074;19.920;2023-05-28T12:49:51;3.17;;;1.90;;
19919;SDS011;10122;50.074;19.920;2023-05-28T12:52:17;4.03;;;1.95;;
19919;SDS011;10122;50.074;19.920;2023-05-28T12:54:43;5.05;;;1.92;;
19919;SDS011;10122;50.074;19.920;2023-05-28T12:57:08;2.92;;;1.90;;
19919;SDS011;10122;50.074;19.920;2023-05-28T12:59:34;3.60;;;2.20;;
19919;SDS011;10122;50.074;19.920;2023-05-28T13:02:00;4.03;;;2.08;;
19919;SDS011;10122;50.074;19.920;2023-05-28T13:04:25;3.33;;;1.90;;
19919;SDS011;10122;50.074;19.920;2023-05-28T13:06:52;4.15;;;2.15;;
19919;SDS011;10122;50.074;19.920;2023-05-28T13:09:18;4.55;;;1.90;;
19919;SDS011;10122;50.074;19.920;2023-05-28T13:11:44;3.35;;;1.77;;
19919;SDS011;10122;50.074;19.920;2023-05-28T13:14:10;3.58;;;1.77;;
19919;SDS011;10122;50.074;19.920;2023-05-28T13:16:36;4.32;;;2.10;;
19919;SDS011;10122;50.074;19.920;2023-05-28T13:19:02;3.50;;;1.83;;
19919;SDS011;10122;50.074;19.920;2023-05-28T13:21:31;4.43;;;1.80;;
19919;SDS011;10122;50.074;19.920;2023-05-28T13:23:57;2.55;;;2.00;;
19919;SDS011;10122;50.074;19.920;2023-05-28T13:26:24;3.85;;;1.88;;
19919;SDS011;10122;50.074;19.920;2023-05-28T13:28:51;4.07;;;1.70;;
19919;SDS011;10122;50.074;19.920;2023-05-28T13:31:17;4.43;;;2.03;;
19919;SDS011;10122;50.074;19.920;2023-05-28T13:33:43;4.32;;;2.05;;
19919;SDS011;10122;50.074;19.920;2023-05-28T13:36:09;3.63;;;1.90;;
19919;SDS011;10122;50.074;19.920;2023-05-28T13:38:36;3.45;;;1.80;;
19919;SDS011;10122;50.074;19.920;2023-05-28T13:41:01;3.75;;;1.75;;
19919;SDS011;10122;50.074;19.920;2023-05-28T13:43:28;3.70;;;1.90;;
19919;SDS011;10122;50.074;19.920;2023-05-28T13:45:55;4.18;;;2.03;;
19919;SDS011;10122;50.074;19.920;2023-05-28T13:48:21;3.70;;;1.80;;
19919;SDS011;10122;50.074;19.920;2023-05-28T13:50:48;2.63;;;1.77;;
19919;SDS011;10122;50.074;19.920;2023-05-28T13:53:13;4.15;;;1.80;;
19919;SDS011;10122;50.074;19.920;2023-05-28T13:55:39;2.97;;;1.90;;
19919;SDS011;10122;50.074;19.920;2023-05-28T13:58:05;5.25;;;2.00;;
19919;SDS011;10122;50.074;19.920;2023-05-28T14:00:32;3.70;;;1.88;;
19919;SDS011;10122;50.074;19.920;2023-05-28T14:02:58;2.40;;;1.70;;
19919;SDS011;10122;50.074;19.920;2023-05-28T14:05:23;3.35;;;1.90;;
19919;SDS011;10122;50.074;19.920;2023-05-28T14:07:49;3.70;;;1.90;;
19919;SDS011;10122;50.074;19.920;2023-05-28T14:10:15;4.10;;;1.80;;
19919;SDS011;10122;50.074;19.920;2023-05-28T14:12:41;5.95;;;1.67;;
19919;SDS011;10122;50.074;19.920;2023-05-28T14:15:07;2.60;;;1.80;;
19919;SDS011;10122;50.074;19.920;2023-05-28T14:17:33;4.15;;;1.98;;
19919;SDS011;10122;50.074;19.920;2023-05-28T14:19:58;2.83;;;1.90;;
19919;SDS011;10122;50.074;19.920;2023-05-28T14:22:24;3.92;;;1.88;;
19919;SDS011;10122;50.074;19.920;2023-05-28T14:24:51;2.33;;;1.90;;
19919;SDS011;10122;50.074;19.920;2023-05-28T14:27:17;3.08;;;1.80;;
19919;SDS011;10122;50.074;19.920;2023-05-28T14:29:42;2.55;;;1.83;;
19919;SDS011;10122;50.074;19.920;2023-05-28T14:32:08;3.92;;;1.60;;
19919;SDS011;10122;50.074;19.920;2023-05-28T14:34:34;3.70;;;1.73;;
19919;SDS011;10122;50.074;19.920;2023-05-28T14:36:59;1.95;;;1.67;;
19919;SDS011;10122;50.074;19.920;2023-05-28T14:39:25;4.25;;;2.10;;
19919;SDS011;10122;50.074;19.920;2023-05-28T14:41:52;3.92;;;1.77;;
19919;SDS011;10122;50.074;19.920;2023-05-28T14:44:18;2.38;;;1.65;;